createdAt,value
2023-01-04T00:01:34.045Z,102365.47
2023-01-04T00:04:02.044Z,102362.78
2023-01-04T00:06:30.068Z,102356.00
2023-01-04T00:08:57.975Z,102352.16
2023-01-04T00:11:26.049Z,102341.19
2023-01-04T00:13:58.610Z,102339.44
2023-01-04T00:16:29.594Z,102335.38
2023-01-04T00:18:58.252Z,102338.63
2023-01-04T00:21:28.027Z,102332.44
2023-01-04T00:23:57.731Z,102329.44
2023-01-04T00:26:27.470Z,102320.56
2023-01-04T00:28:57.861Z,102317.06
2023-01-04T00:31:28.325Z,102320.59
2023-01-04T00:33:57.656Z,102310.09
2023-01-04T00:36:26.342Z,102292.09
2023-01-04T00:39:08.914Z,102293.72
2023-01-04T00:44:27.961Z,102282.88
2023-01-04T00:46:56.244Z,102283.81
2023-01-04T00:49:24.201Z,102287.84
2023-01-04T00:51:52.122Z,102276.16
2023-01-04T00:54:21.172Z,102260.72
2023-01-04T00:56:49.886Z,102254.94
2023-01-04T00:59:19.921Z,102250.75
2023-01-04T01:01:50.061Z,102236.09
2023-01-04T01:04:20.080Z,102237.09
2023-01-04T01:06:48.740Z,102230.31
2023-01-04T01:09:16.889Z,102232.25
2023-01-04T01:11:45.084Z,102239.63
2023-01-04T01:14:18.646Z,102233.38
2023-01-04T01:17:02.486Z,102237.88
2023-01-04T01:19:32.134Z,102242.72
2023-01-04T01:22:00.252Z,102233.38
2023-01-04T01:24:28.957Z,102237.31
2023-01-04T01:26:57.561Z,102230.97
2023-01-04T01:29:25.476Z,102235.13
2023-01-04T01:31:53.658Z,102231.78
2023-01-04T01:34:21.690Z,102231.94
2023-01-04T01:36:51.219Z,102235.72
2023-01-04T01:39:19.118Z,102226.09
2023-01-04T01:41:47.111Z,102227.25
2023-01-04T01:44:52.013Z,102235.06
2023-01-04T01:47:22.455Z,102233.06
2023-01-04T01:49:54.171Z,102228.59
2023-01-04T01:52:28.666Z,102239.75
2023-01-04T01:55:01.752Z,102233.94
2023-01-04T01:57:33.284Z,102226.53
2023-01-04T02:00:05.653Z,102232.06
2023-01-04T02:02:46.428Z,102231.44
2023-01-04T02:05:15.187Z,102221.00
2023-01-04T02:07:45.141Z,102215.34
2023-01-04T02:10:13.481Z,102211.75
2023-01-04T02:12:41.796Z,102202.38
2023-01-04T02:15:10.247Z,102187.50
2023-01-04T02:17:46.093Z,102191.34
2023-01-04T02:20:32.284Z,102171.75
2023-01-04T02:23:28.882Z,102153.25
2023-01-04T02:26:34.801Z,102134.44
2023-01-04T02:29:36.274Z,102123.56
2023-01-04T02:32:10.635Z,102124.31
2023-01-04T02:34:52.250Z,102122.31
2023-01-04T02:37:34.239Z,102123.38
2023-01-04T02:40:08.995Z,102118.25
2023-01-04T02:43:03.576Z,102097.81
2023-01-04T02:45:37.682Z,102097.41
2023-01-04T02:48:25.612Z,102085.97
2023-01-04T02:50:56.078Z,102092.69
2023-01-04T02:53:28.451Z,102085.34
2023-01-04T02:56:08.967Z,102107.34
2023-01-04T02:58:58.776Z,102098.44
2023-01-04T03:01:54.548Z,102091.28
2023-01-04T03:04:58.109Z,102078.91
2023-01-04T03:07:34.947Z,102080.09
2023-01-04T03:10:09.549Z,102072.13
2023-01-04T03:12:46.751Z,102061.75
2023-01-04T03:15:19.232Z,102071.03
2023-01-04T03:17:52.123Z,102053.44
2023-01-04T03:20:24.103Z,102045.25
2023-01-04T03:23:13.545Z,102050.94
2023-01-04T03:26:02.520Z,102040.88
2023-01-04T03:28:53.248Z,102041.09
2023-01-04T03:31:44.032Z,102033.81
2023-01-04T03:34:30.137Z,102032.78
2023-01-04T03:37:08.619Z,102022.91
2023-01-04T03:40:03.423Z,102017.09
2023-01-04T03:43:00.963Z,102009.19
2023-01-04T03:45:51.351Z,101998.53
2023-01-04T03:48:31.020Z,101985.50
2023-01-04T03:51:06.272Z,101987.69
2023-01-04T03:53:41.306Z,101985.59
2023-01-04T03:56:11.751Z,101982.25
2023-01-04T03:58:40.238Z,101978.00
2023-01-04T04:01:08.702Z,101973.97
2023-01-04T04:03:54.110Z,101959.38
2023-01-04T04:06:39.459Z,101970.28
2023-01-04T04:09:08.713Z,101959.25
2023-01-04T04:11:36.583Z,101945.41
2023-01-04T04:14:04.481Z,101946.13
2023-01-04T04:16:32.477Z,101939.81
2023-01-04T04:19:06.428Z,101926.19
2023-01-04T04:21:36.356Z,101917.88
2023-01-04T04:24:04.606Z,101917.34
2023-01-04T04:26:34.147Z,101909.50
2023-01-04T04:29:02.038Z,101902.38
2023-01-04T04:31:29.947Z,101911.16
2023-01-04T04:33:57.819Z,101897.00
2023-01-04T04:36:25.667Z,101884.19
2023-01-04T04:38:53.528Z,101883.59
2023-01-04T04:41:38.469Z,101884.69
2023-01-04T04:44:08.666Z,101869.88
2023-01-04T04:46:36.939Z,101862.19
2023-01-04T04:49:05.335Z,101848.28
2023-01-04T04:51:33.472Z,101846.25
2023-01-04T04:54:01.678Z,101832.47
2023-01-04T04:56:29.767Z,101828.25
2023-01-04T04:58:57.925Z,101828.38
2023-01-04T05:01:27.239Z,101816.94
2023-01-04T05:03:55.393Z,101813.72
2023-01-04T05:06:23.428Z,101807.22
2023-01-04T05:08:51.485Z,101796.59
2023-01-04T05:11:39.742Z,101801.78
2023-01-04T05:14:06.647Z,101790.34
2023-01-04T05:16:36.670Z,101786.25
2023-01-04T05:19:05.000Z,101771.84
2023-01-04T05:21:32.842Z,101777.47
2023-01-04T05:24:00.744Z,101757.06
2023-01-04T05:26:28.608Z,101756.19
2023-01-04T05:28:56.451Z,101749.13
2023-01-04T05:31:23.669Z,101750.56
2023-01-04T05:33:52.972Z,101737.66
2023-01-04T05:36:20.873Z,101735.53
2023-01-04T05:38:48.730Z,101726.81
2023-01-04T05:41:30.523Z,101714.59
2023-01-04T05:43:58.509Z,101701.28
2023-01-04T05:46:26.365Z,101691.00
2023-01-04T05:48:55.829Z,101688.31
2023-01-04T05:51:23.694Z,101682.22
2023-01-04T05:53:51.503Z,101678.44
2023-01-04T05:56:19.331Z,101667.72
2023-01-04T05:58:47.357Z,101671.97
2023-01-04T06:01:15.218Z,101669.84
2023-01-04T06:03:43.646Z,101671.56
2023-01-04T06:06:13.024Z,101668.00
2023-01-04T06:08:40.910Z,101662.13
2023-01-04T06:11:08.777Z,101647.06
2023-01-04T06:13:36.688Z,101642.75
2023-01-04T06:16:04.707Z,101643.75
2023-01-04T06:18:32.616Z,101640.53
2023-01-04T06:21:00.466Z,101633.97
2023-01-04T06:23:29.725Z,101620.66
2023-01-04T06:25:57.632Z,101626.50
2023-01-04T06:28:25.473Z,101618.78
2023-01-04T06:30:53.477Z,101611.75
2023-01-04T06:33:21.475Z,101599.97
2023-01-04T06:35:55.021Z,101604.44
2023-01-04T06:38:23.141Z,101597.00
2023-01-04T06:40:52.666Z,101587.06
2023-01-04T06:43:20.521Z,101572.38
2023-01-04T06:45:48.391Z,101584.66
2023-01-04T06:48:18.116Z,101575.75
2023-01-04T06:50:46.659Z,101566.06
2023-01-04T06:53:14.550Z,101570.22
2023-01-04T06:55:44.441Z,101551.50
2023-01-04T06:58:13.933Z,101561.91
2023-01-04T07:00:41.843Z,101537.41
2023-01-04T07:03:13.392Z,101548.66
2023-01-04T07:05:43.803Z,101540.66
2023-01-04T07:08:12.337Z,101537.31
2023-01-04T07:10:40.346Z,101536.34
2023-01-04T07:13:09.554Z,101532.56
2023-01-04T07:15:40.939Z,101527.50
2023-01-04T07:18:09.136Z,101522.44
2023-01-04T07:20:37.378Z,101517.47
2023-01-04T07:23:05.560Z,101507.56
2023-01-04T07:25:33.669Z,101502.94
2023-01-04T07:28:01.785Z,101504.34
2023-01-04T07:30:29.831Z,101503.72
2023-01-04T07:32:59.496Z,101498.59
2023-01-04T07:35:27.520Z,101497.84
2023-01-04T07:37:58.713Z,101491.56
2023-01-04T07:40:28.035Z,101486.78
2023-01-04T07:42:58.034Z,101489.38
2023-01-04T07:45:26.271Z,101480.97
2023-01-04T07:47:54.395Z,101476.38
2023-01-04T07:50:23.680Z,101475.25
2023-01-04T07:52:51.577Z,101464.69
2023-01-04T07:55:19.434Z,101461.00
2023-01-04T07:57:47.367Z,101454.66
2023-01-04T08:00:16.002Z,101449.63
2023-01-04T08:02:43.944Z,101448.06
2023-01-04T08:05:12.099Z,101436.63
2023-01-04T08:07:41.459Z,101433.47
2023-01-04T08:10:09.852Z,101424.94
2023-01-04T08:12:37.680Z,101411.22
2023-01-04T08:15:06.592Z,101418.50
2023-01-04T08:17:34.683Z,101412.47
2023-01-04T08:20:02.655Z,101403.59
2023-01-04T08:22:30.748Z,101391.13
2023-01-04T08:25:00.380Z,101393.97
2023-01-04T08:27:28.444Z,101393.13
2023-01-04T08:29:56.379Z,101406.91
2023-01-04T08:32:24.409Z,101402.44
2023-01-04T08:34:53.516Z,101392.00
2023-01-04T08:37:22.083Z,101398.94
2023-01-04T08:39:50.287Z,101393.56
2023-01-04T08:42:28.480Z,101385.06
2023-01-04T08:45:01.630Z,101374.31
2023-01-04T08:47:30.660Z,101382.72
2023-01-04T08:50:03.289Z,101384.94
2023-01-04T08:52:35.933Z,101383.19
2023-01-04T08:55:10.137Z,101371.19
2023-01-04T08:57:41.866Z,101366.16
2023-01-04T09:00:11.319Z,101372.78
2023-01-04T09:02:39.451Z,101375.75
2023-01-04T09:05:08.521Z,101371.69
2023-01-04T09:07:36.707Z,101365.84
2023-01-04T09:10:04.923Z,101375.88
2023-01-04T09:12:33.053Z,101369.16
2023-01-04T09:15:02.502Z,101363.06
2023-01-04T09:17:30.704Z,101356.03
2023-01-04T09:19:58.695Z,101352.03
2023-01-04T09:22:26.942Z,101343.31
2023-01-04T09:24:55.349Z,101353.00
2023-01-04T09:27:23.748Z,101335.38
2023-01-04T09:29:51.742Z,101331.09
2023-01-04T09:32:21.129Z,101329.59
2023-01-04T09:34:49.139Z,101313.19
2023-01-04T09:37:17.126Z,101321.97
2023-01-04T09:39:45.749Z,101310.50
2023-01-04T09:42:21.548Z,101302.31
2023-01-04T09:45:22.615Z,101308.44
2023-01-04T09:47:46.843Z,101281.16
2023-01-04T09:50:17.737Z,101284.97
2023-01-04T09:52:53.011Z,101291.06
2023-01-04T09:55:37.504Z,101279.44
2023-01-04T09:58:18.804Z,101273.94
2023-01-04T10:00:50.417Z,101274.03
2023-01-04T10:03:25.334Z,101271.34
2023-01-04T10:05:56.734Z,101267.09
2023-01-04T10:08:25.186Z,101255.25
2023-01-04T10:11:05.242Z,101245.94
2023-01-04T10:14:01.320Z,101243.06
2023-01-04T10:21:12.037Z,101218.94
2023-01-04T10:22:46.961Z,101217.13
2023-01-04T10:25:30.400Z,101201.09
2023-01-04T10:28:16.050Z,101202.25
2023-01-04T10:30:52.189Z,101193.44
2023-01-04T10:33:25.441Z,101187.41
2023-01-04T10:35:54.675Z,101185.53
2023-01-04T10:38:26.808Z,101194.41
2023-01-04T10:40:58.895Z,101183.19
2023-01-04T10:44:11.461Z,101169.84
2023-01-04T10:46:31.019Z,101168.06
2023-01-04T10:49:05.536Z,101165.84
2023-01-04T10:51:43.277Z,101164.50
2023-01-04T10:54:20.585Z,101154.09
2023-01-04T10:56:53.227Z,101137.34
2023-01-04T10:59:28.042Z,101136.19
2023-01-04T11:02:02.740Z,101138.13
2023-01-04T11:04:36.951Z,101120.84
2023-01-04T11:07:11.772Z,101132.78
2023-01-04T11:09:43.479Z,101108.22
2023-01-04T11:12:18.181Z,101113.56
2023-01-04T11:14:46.411Z,101113.13
2023-01-04T11:17:14.433Z,101095.41
2023-01-04T11:19:43.842Z,101086.22
2023-01-04T11:22:22.290Z,101090.75
2023-01-04T11:25:32.944Z,101083.09
2023-01-04T11:27:47.438Z,101094.72
2023-01-04T11:30:20.005Z,101084.22
2023-01-04T11:32:54.002Z,101068.75
2023-01-04T11:35:43.395Z,101088.22
2023-01-04T11:38:17.770Z,101069.50
2023-01-04T11:40:57.439Z,101073.25
2023-01-04T11:43:26.922Z,101059.34
2023-01-04T11:46:01.377Z,101073.56
2023-01-04T11:48:35.509Z,101053.78
2023-01-04T11:51:04.070Z,101053.81
2023-01-04T11:53:35.756Z,101050.16
2023-01-04T11:56:19.277Z,101041.47
2023-01-04T11:59:05.852Z,101034.53
2023-01-04T12:01:35.587Z,101026.22
2023-01-04T12:04:04.729Z,101020.59
2023-01-04T12:06:38.535Z,101015.06
2023-01-04T12:09:14.416Z,101013.50
2023-01-04T12:11:46.957Z,101003.94
2023-01-04T12:14:20.607Z,101002.22
2023-01-04T12:16:55.628Z,100994.25
2023-01-04T12:19:23.943Z,101003.50
2023-01-04T12:21:55.677Z,101010.16
2023-01-04T12:24:28.805Z,100997.75
2023-01-04T12:26:57.083Z,101001.31
2023-01-04T12:29:53.670Z,100989.78
2023-01-04T12:32:46.948Z,100973.19
2023-01-04T12:36:04.172Z,100985.53
2023-01-04T12:38:58.283Z,100971.50
2023-01-04T12:42:00.717Z,100969.19
2023-01-04T12:45:05.979Z,100960.84
2023-01-04T12:47:59.480Z,100960.41
2023-01-04T12:50:32.150Z,100956.91
2023-01-04T12:53:38.802Z,100948.22
2023-01-04T12:55:55.751Z,100941.97
2023-01-04T13:02:19.809Z,100939.72
2023-01-04T13:04:48.727Z,100946.47
2023-01-04T13:07:21.162Z,100950.41
2023-01-04T13:09:59.606Z,100931.13
2023-01-04T13:13:01.292Z,100922.94
2023-01-04T13:15:49.676Z,100918.59
2023-01-04T13:18:34.059Z,100906.72
2023-01-04T13:21:03.410Z,100896.88
2023-01-04T13:23:31.773Z,100902.88
2023-01-04T13:26:45.966Z,100903.53
2023-01-04T13:29:21.349Z,100901.78
2023-01-04T13:31:56.530Z,100890.09
2023-01-04T13:34:27.751Z,100901.16
2023-01-04T13:37:14.794Z,100880.28
2023-01-04T13:39:45.031Z,100879.78
2023-01-04T13:42:19.545Z,100880.03
2023-01-04T13:45:22.064Z,100879.84
2023-01-04T13:47:54.101Z,100887.28
2023-01-04T13:50:30.138Z,100876.47
2023-01-04T13:53:13.514Z,100871.25
2023-01-04T13:55:41.369Z,100885.50
2023-01-04T13:58:18.653Z,100876.84
2023-01-04T14:00:49.625Z,100861.28
2023-01-04T14:03:30.704Z,100865.66
2023-01-04T14:06:16.787Z,100864.78
2023-01-04T14:08:51.807Z,100860.22
2023-01-04T14:11:41.087Z,100865.41
2023-01-04T14:14:32.732Z,100857.31
2023-01-04T14:17:27.624Z,100855.94
2023-01-04T14:19:58.962Z,100856.81
2023-01-04T14:22:52.361Z,100861.97
2023-01-04T14:25:45.088Z,100856.75
2023-01-04T14:28:28.098Z,100844.38
2023-01-04T14:30:57.916Z,100846.19
2023-01-04T14:33:33.993Z,100841.31
2023-01-04T14:36:11.360Z,100833.63
2023-01-04T14:38:41.951Z,100837.25
2023-01-04T14:41:20.755Z,100829.09
2023-01-04T14:43:53.464Z,100829.72
2023-01-04T14:46:22.495Z,100829.84
2023-01-04T14:48:50.596Z,100835.84
2023-01-04T14:51:22.698Z,100829.00
2023-01-04T14:53:51.021Z,100833.19
2023-01-04T14:56:19.982Z,100824.69
2023-01-04T14:58:47.926Z,100819.34
2023-01-04T15:01:15.958Z,100821.53
2023-01-04T15:03:44.085Z,100802.28
2023-01-04T15:06:12.628Z,100806.59
2023-01-04T15:08:41.891Z,100803.38
2023-01-04T15:11:11.667Z,100798.75
2023-01-04T15:13:40.046Z,100790.50
2023-01-04T15:16:11.540Z,100793.66
2023-01-04T15:18:39.425Z,100796.00
2023-01-04T15:21:07.812Z,100789.66
2023-01-04T15:23:35.707Z,100782.69
2023-01-04T15:26:07.498Z,100787.63
2023-01-04T15:28:36.067Z,100786.91
2023-01-04T15:31:08.109Z,100786.16
2023-01-04T15:33:36.214Z,100795.94
2023-01-04T15:36:06.511Z,100780.25
2023-01-04T15:38:34.941Z,100780.03
2023-01-04T15:41:05.129Z,100784.25
2023-01-04T15:43:36.460Z,100777.94
2023-01-04T15:46:07.317Z,100775.66
2023-01-04T15:48:35.545Z,100773.72
2023-01-04T15:51:05.937Z,100782.78
2023-01-04T15:53:33.779Z,100765.78
2023-01-04T15:56:09.128Z,100769.16
2023-01-04T15:58:38.813Z,100739.59
2023-01-04T16:01:10.606Z,100744.00
2023-01-04T16:03:38.812Z,100744.00
2023-01-04T16:06:08.234Z,100739.75
2023-01-04T16:08:36.327Z,100739.03
2023-01-04T16:11:12.476Z,100741.44
2023-01-04T16:13:42.214Z,100724.19
2023-01-04T16:16:11.195Z,100724.97
2023-01-04T16:18:39.402Z,100726.00
2023-01-04T16:21:08.890Z,100714.31
2023-01-04T16:23:37.444Z,100710.44
2023-01-04T16:26:07.337Z,100700.31
2023-01-04T16:28:35.648Z,100708.94
2023-01-04T16:31:06.000Z,100712.84
2023-01-04T16:33:35.423Z,100706.31
2023-01-04T16:36:05.509Z,100693.38
2023-01-04T16:38:37.146Z,100688.56
2023-01-04T16:41:07.148Z,100691.47
2023-01-04T16:43:44.297Z,100684.75
2023-01-04T16:46:20.420Z,100671.69
2023-01-04T16:48:50.589Z,100664.63
2023-01-04T16:51:18.724Z,100668.97
2023-01-04T16:53:46.664Z,100648.16
2023-01-04T16:56:16.662Z,100655.63
2023-01-04T16:58:44.916Z,100655.19
2023-01-04T17:01:15.116Z,100648.97
2023-01-04T17:03:45.868Z,100643.28
2023-01-04T17:06:16.888Z,100660.44
2023-01-04T17:08:45.543Z,100653.44
2023-01-04T17:14:03.897Z,100630.47
2023-01-04T17:16:35.010Z,100636.06
2023-01-04T17:19:04.618Z,100638.50
2023-01-04T17:21:34.164Z,100633.44
2023-01-04T17:24:03.036Z,100621.75
2023-01-04T17:26:33.033Z,100616.78
2023-01-04T17:29:01.925Z,100629.72
2023-01-04T17:31:31.941Z,100624.66
2023-01-04T17:34:00.080Z,100598.16
2023-01-04T17:36:29.465Z,100590.72
2023-01-04T17:38:59.180Z,100599.19
2023-01-04T17:41:28.647Z,100606.06
2023-01-04T17:44:00.208Z,100594.28
2023-01-04T17:46:31.832Z,100588.69
2023-01-04T17:51:52.764Z,100601.22
2023-01-04T17:54:21.304Z,100587.63
2023-01-04T17:56:49.345Z,100581.03
2023-01-04T17:59:17.175Z,100598.88
2023-01-04T18:01:45.063Z,100600.69
2023-01-04T18:04:13.313Z,100590.38
2023-01-04T18:06:41.281Z,100574.63
2023-01-04T18:09:15.388Z,100570.88
2023-01-04T18:11:46.365Z,100600.19
2023-01-04T18:14:14.672Z,100591.69
2023-01-04T18:16:57.695Z,100577.28
2023-01-04T18:19:27.405Z,100575.38
2023-01-04T18:21:55.558Z,100593.50
2023-01-04T18:24:36.125Z,100575.34
2023-01-04T18:27:22.523Z,100566.84
2023-01-04T18:29:51.721Z,100567.59
2023-01-04T18:32:19.980Z,100574.78
2023-01-04T18:34:47.831Z,100580.88
2023-01-04T18:37:18.255Z,100584.88
2023-01-04T18:39:47.991Z,100561.38
2023-01-04T18:42:16.079Z,100564.28
2023-01-04T18:44:48.368Z,100565.16
2023-01-04T18:47:19.690Z,100560.88
2023-01-04T18:49:47.996Z,100550.25
2023-01-04T18:52:16.232Z,100559.13
2023-01-04T18:54:44.930Z,100544.50
2023-01-04T18:57:14.528Z,100539.00
2023-01-04T18:59:42.595Z,100528.41
2023-01-04T19:02:16.542Z,100524.66
2023-01-04T19:04:44.880Z,100533.41
2023-01-04T19:07:12.804Z,100540.78
2023-01-04T19:09:42.535Z,100537.69
2023-01-04T19:12:10.878Z,100534.25
2023-01-04T19:14:41.791Z,100549.25
2023-01-04T19:17:10.433Z,100550.19
2023-01-04T19:19:38.564Z,100528.41
2023-01-04T19:22:06.469Z,100526.75
2023-01-04T19:24:34.377Z,100526.34
2023-01-04T19:27:05.105Z,100516.38
2023-01-04T19:29:33.999Z,100525.28
2023-01-04T19:32:03.583Z,100530.91
2023-01-04T19:34:31.466Z,100523.19
2023-01-04T19:36:59.371Z,100514.84
2023-01-04T19:39:27.298Z,100523.69
2023-01-04T19:41:55.164Z,100523.63
2023-01-04T19:44:23.353Z,100522.47
2023-01-04T19:46:51.283Z,100513.41
2023-01-04T19:49:20.538Z,100515.41
2023-01-04T19:51:51.501Z,100512.03
2023-01-04T19:54:25.210Z,100514.28
2023-01-04T19:56:54.470Z,100508.91
2023-01-04T19:59:22.966Z,100514.00
2023-01-04T20:01:51.005Z,100499.03
2023-01-04T20:04:20.983Z,100489.13
2023-01-04T20:06:48.989Z,100484.19
2023-01-04T20:09:18.453Z,100495.75
2023-01-04T20:11:46.598Z,100489.41
2023-01-04T20:14:14.469Z,100486.06
2023-01-04T20:16:42.371Z,100483.91
2023-01-04T20:19:10.319Z,100487.25
2023-01-04T20:21:39.674Z,100490.56
2023-01-04T20:24:08.183Z,100486.47
2023-01-04T20:26:36.103Z,100481.22
2023-01-04T20:29:04.545Z,100474.03
2023-01-04T20:31:33.815Z,100484.06
2023-01-04T20:34:01.781Z,100485.47
2023-01-04T20:36:30.218Z,100467.38
2023-01-04T20:39:00.615Z,100460.47
2023-01-04T20:41:31.704Z,100475.72
2023-01-04T20:43:59.636Z,100473.03
2023-01-04T20:46:31.534Z,100469.50
2023-01-04T20:49:00.436Z,100471.34
2023-01-04T20:51:29.736Z,100480.69
2023-01-04T20:54:00.161Z,100477.41
2023-01-04T20:56:30.353Z,100478.69
2023-01-04T20:58:58.386Z,100473.63
2023-01-04T21:01:26.361Z,100467.94
2023-01-04T21:03:54.544Z,100468.66
2023-01-04T21:06:23.146Z,100460.47
2023-01-04T21:08:52.562Z,100462.00
2023-01-04T21:11:22.160Z,100459.34
2023-01-04T21:13:51.946Z,100467.38
2023-01-04T21:16:19.848Z,100462.16
2023-01-04T21:18:47.767Z,100469.66
2023-01-04T21:21:17.362Z,100465.97
2023-01-04T21:23:45.826Z,100469.09
2023-01-04T21:26:16.411Z,100467.38
2023-01-04T21:28:46.304Z,100462.88
2023-01-04T21:31:17.504Z,100453.25
2023-01-04T21:33:45.394Z,100468.22
2023-01-04T21:36:15.236Z,100488.28
2023-01-04T21:38:43.397Z,100499.59
2023-01-04T21:41:13.209Z,100491.69
2023-01-04T21:43:41.889Z,100473.59
2023-01-04T21:46:14.814Z,100476.13
2023-01-04T21:48:43.651Z,100471.00
2023-01-04T21:51:12.484Z,100473.28
2023-01-04T21:53:42.098Z,100486.84
2023-01-04T21:56:13.076Z,100477.34
2023-01-04T21:58:40.959Z,100484.63
2023-01-04T22:01:15.287Z,100482.66
2023-01-04T22:03:43.373Z,100504.06
2023-01-04T22:06:13.295Z,100489.00
2023-01-04T22:08:43.094Z,100492.19
2023-01-04T22:11:11.410Z,100474.75
2023-01-04T22:13:39.307Z,100471.22
2023-01-04T22:16:08.116Z,100475.00
2023-01-04T22:18:37.945Z,100449.03
2023-01-04T22:21:07.749Z,100460.59
2023-01-04T22:23:35.983Z,100458.59
2023-01-04T22:26:04.336Z,100472.03
2023-01-04T22:28:36.750Z,100481.94
2023-01-04T22:31:07.025Z,100498.69
2023-01-04T22:33:36.894Z,100511.97
2023-01-04T22:36:06.351Z,100502.41
2023-01-04T22:38:35.114Z,100498.50
2023-01-04T22:41:07.191Z,100474.31
2023-01-04T22:43:35.597Z,100492.59
2023-01-04T22:46:05.606Z,100468.66
2023-01-04T22:48:34.423Z,100458.75
2023-01-04T22:51:07.989Z,100469.44
2023-01-04T22:53:36.453Z,100468.66
2023-01-04T22:56:18.932Z,100476.53
2023-01-04T22:58:53.120Z,100475.00
2023-01-04T23:01:22.327Z,100483.72
2023-01-04T23:03:51.730Z,100487.50
2023-01-04T23:06:22.006Z,100474.41
2023-01-04T23:08:54.856Z,100465.38
2023-01-04T23:11:22.766Z,100476.00
2023-01-04T23:13:50.921Z,100466.97
2023-01-04T23:16:18.894Z,100463.31
2023-01-04T23:18:46.956Z,100463.31
2023-01-04T23:21:16.405Z,100459.06
2023-01-04T23:23:49.986Z,100461.91
2023-01-04T23:26:20.158Z,100446.38
2023-01-04T23:28:49.016Z,100451.19
2023-01-04T23:31:19.560Z,100447.22
2023-01-04T23:33:48.025Z,100450.22
2023-01-04T23:36:18.730Z,100460.06
2023-01-04T23:38:52.230Z,100458.75
2023-01-04T23:41:20.332Z,100447.59
2023-01-04T23:43:48.865Z,100454.72
2023-01-04T23:46:18.609Z,100450.06
2023-01-04T23:48:46.531Z,100459.63
2023-01-04T23:51:15.849Z,100450.81
2023-01-04T23:53:43.711Z,100446.72
2023-01-04T23:56:16.230Z,100449.75
2023-01-04T23:58:44.548Z,100463.88
